createdAt,value
2018-04-26T00:01:10.451Z,13.40
2018-04-26T00:03:38.511Z,13.40
2018-04-26T00:06:06.558Z,13.30
2018-04-26T00:08:35.385Z,13.00
2018-04-26T00:11:03.442Z,12.90
2018-04-26T00:13:31.497Z,13.00
2018-04-26T00:16:00.308Z,12.80
2018-04-26T00:18:28.357Z,12.80
2018-04-26T00:20:57.160Z,12.60
2018-04-26T00:23:25.256Z,12.60
2018-04-26T00:25:53.293Z,12.70
2018-04-26T00:28:21.597Z,12.90
2018-04-26T00:30:50.660Z,12.90
2018-04-26T00:33:18.708Z,12.90
2018-04-26T00:35:47.519Z,12.70
2018-04-26T00:38:15.576Z,12.70
2018-04-26T00:40:43.620Z,12.70
2018-04-26T00:43:11.680Z,12.60
2018-04-26T00:45:39.729Z,12.30
2018-04-26T00:48:08.561Z,12.10
2018-04-26T00:50:41.041Z,12.10
2018-04-26T00:53:09.092Z,12.30
2018-04-26T00:55:37.145Z,12.40
2018-04-26T00:58:05.191Z,12.50
2018-04-26T01:00:33.238Z,12.40
2018-04-26T01:03:02.051Z,12.30
2018-04-26T01:05:30.098Z,12.30
2018-04-26T01:07:58.912Z,12.20
2018-04-26T01:10:26.948Z,12.10
2018-04-26T01:12:55.776Z,12.10
2018-04-26T01:15:23.815Z,12.10
2018-04-26T01:17:52.627Z,12.10
2018-04-26T01:20:20.820Z,12.10
2018-04-26T01:22:54.422Z,12.10
2018-04-26T01:25:22.468Z,12.00
2018-04-26T01:27:50.525Z,11.90
2018-04-26T01:30:18.575Z,11.80
2018-04-26T01:32:47.954Z,11.80
2018-04-26T01:35:16.019Z,11.80
2018-04-26T01:37:47.842Z,11.90
2018-04-26T01:40:15.890Z,11.90
2018-04-26T01:42:44.700Z,12.10
2018-04-26T01:45:12.757Z,12.10
2018-04-26T01:47:41.571Z,12.00
2018-04-26T01:50:09.649Z,12.00
2018-04-26T01:52:37.687Z,12.10
2018-04-26T01:55:05.793Z,12.10
2018-04-26T01:57:34.665Z,12.00
2018-04-26T02:00:02.722Z,12.00
2018-04-26T02:02:31.685Z,12.00
2018-04-26T02:04:59.800Z,12.00
2018-04-26T02:07:28.568Z,12.00
2018-04-26T02:09:57.384Z,12.10
2018-04-26T02:12:25.439Z,12.10
2018-04-26T02:14:53.487Z,12.00
2018-04-26T02:17:22.292Z,12.00
2018-04-26T02:19:50.398Z,12.00
2018-04-26T02:22:18.445Z,12.10
2018-04-26T02:24:46.568Z,12.10
2018-04-26T02:27:14.621Z,12.10
2018-04-26T02:29:42.660Z,12.10
2018-04-26T02:32:10.756Z,12.10
2018-04-26T02:34:38.749Z,12.10
2018-04-26T02:37:06.811Z,11.80
2018-04-26T02:39:34.857Z,11.80
2018-04-26T02:42:02.906Z,11.40
2018-04-26T02:44:30.949Z,11.40
2018-04-26T02:46:59.030Z,11.30
2018-04-26T02:49:27.838Z,11.30
2018-04-26T02:51:55.885Z,11.30
2018-04-26T02:54:24.701Z,11.40
2018-04-26T02:56:52.753Z,11.30
2018-04-26T02:59:21.559Z,11.60
2018-04-26T03:01:49.636Z,11.60
2018-04-26T03:04:17.661Z,11.60
2018-04-26T03:06:45.704Z,11.50
2018-04-26T03:09:13.751Z,11.50
2018-04-26T03:11:41.800Z,11.50
2018-04-26T03:14:09.854Z,11.50
2018-04-26T03:16:38.669Z,11.30
2018-04-26T03:19:07.491Z,11.20
2018-04-26T03:21:35.531Z,11.20
2018-04-26T03:24:03.583Z,11.10
2018-04-26T03:26:32.511Z,11.00
2018-04-26T03:29:00.572Z,11.00
2018-04-26T03:31:28.627Z,11.00
2018-04-26T03:33:56.681Z,11.10
2018-04-26T03:36:24.712Z,11.10
2018-04-26T03:38:52.765Z,11.20
2018-04-26T03:41:20.818Z,11.20
2018-04-26T03:43:48.868Z,11.20
2018-04-26T03:46:17.682Z,11.20
2018-04-26T03:48:45.732Z,11.20
2018-04-26T03:51:13.763Z,11.10
2018-04-26T03:53:41.815Z,11.00
2018-04-26T03:56:09.855Z,10.90
2018-04-26T03:58:37.905Z,10.90
2018-04-26T04:01:18.601Z,11.00
2018-04-26T04:03:58.438Z,11.00
2018-04-26T04:06:26.477Z,11.10
2018-04-26T04:08:55.333Z,11.10
2018-04-26T04:11:23.373Z,11.10
2018-04-26T04:13:51.430Z,10.90
2018-04-26T04:16:20.217Z,11.00
2018-04-26T04:18:48.265Z,11.00
2018-04-26T04:21:17.072Z,11.00
2018-04-26T04:23:45.855Z,11.00
2018-04-26T04:26:14.797Z,11.10
2018-04-26T04:28:42.844Z,11.00
2018-04-26T04:31:16.989Z,10.80
2018-04-26T04:33:45.032Z,10.80
2018-04-26T04:36:13.448Z,10.90
2018-04-26T04:38:42.238Z,11.00
2018-04-26T04:41:10.279Z,11.10
2018-04-26T04:43:38.341Z,11.20
2018-04-26T04:46:07.272Z,11.30
2018-04-26T04:48:35.329Z,11.30
2018-04-26T04:51:03.419Z,11.20
2018-04-26T04:53:31.480Z,11.20
2018-04-26T04:55:59.532Z,11.30
2018-04-26T04:58:27.576Z,11.30
2018-04-26T05:00:55.633Z,11.30
2018-04-26T05:03:23.673Z,11.30
2018-04-26T05:05:52.353Z,11.30
2018-04-26T05:08:20.399Z,11.30
2018-04-26T05:10:48.457Z,11.30
2018-04-26T05:13:17.278Z,11.40
2018-04-26T05:15:45.327Z,11.40
2018-04-26T05:18:13.379Z,11.40
2018-04-26T05:20:41.423Z,11.30
2018-04-26T05:23:10.252Z,11.20
2018-04-26T05:25:39.073Z,11.30
2018-04-26T05:28:07.102Z,11.20
2018-04-26T05:30:35.177Z,11.40
2018-04-26T05:33:03.203Z,11.40
2018-04-26T05:35:32.028Z,11.60
2018-04-26T05:38:00.064Z,11.60
2018-04-26T05:40:28.888Z,11.70
2018-04-26T05:42:56.957Z,11.60
2018-04-26T05:45:25.027Z,11.60
2018-04-26T05:47:53.074Z,11.80
2018-04-26T05:50:21.900Z,11.70
2018-04-26T05:52:49.949Z,11.80
2018-04-26T05:55:18.009Z,11.70
2018-04-26T05:57:46.054Z,11.80
2018-04-26T06:00:14.118Z,11.50
2018-04-26T06:02:42.172Z,11.40
2018-04-26T06:05:10.231Z,11.30
2018-04-26T06:07:38.273Z,11.40
2018-04-26T06:10:06.345Z,11.40
2018-04-26T06:12:34.385Z,11.20
2018-04-26T06:15:02.418Z,11.20
2018-04-26T06:17:30.477Z,11.20
2018-04-26T06:19:58.525Z,11.30
2018-04-26T06:22:26.628Z,11.30
2018-04-26T06:24:54.680Z,11.30
2018-04-26T06:27:22.753Z,11.20
2018-04-26T06:29:50.817Z,11.20
2018-04-26T06:32:18.883Z,11.30
2018-04-26T06:34:46.954Z,11.20
2018-04-26T06:37:15.001Z,11.20
2018-04-26T06:39:43.817Z,11.30
2018-04-26T06:42:11.922Z,11.30
2018-04-26T06:44:39.926Z,11.30
2018-04-26T06:47:08.347Z,11.30
2018-04-26T06:49:36.468Z,11.40
2018-04-26T06:52:04.513Z,11.50
2018-04-26T06:54:33.166Z,11.40
2018-04-26T06:57:02.481Z,11.40
2018-04-26T06:59:30.521Z,11.40
2018-04-26T07:01:59.166Z,11.40
2018-04-26T07:04:30.379Z,11.50
2018-04-26T07:06:58.571Z,11.50
2018-04-26T07:09:26.674Z,11.60
2018-04-26T07:11:54.716Z,11.70
2018-04-26T07:14:23.027Z,11.90
2018-04-26T07:16:51.073Z,11.80
2018-04-26T07:19:19.124Z,11.60
2018-04-26T07:21:47.249Z,11.60
2018-04-26T07:24:15.468Z,11.50
2018-04-26T07:26:44.112Z,11.40
2018-04-26T07:29:12.927Z,11.50
2018-04-26T07:31:41.141Z,11.60
2018-04-26T07:34:09.346Z,11.70
2018-04-26T07:36:38.199Z,11.90
2018-04-26T07:39:06.539Z,11.90
2018-04-26T07:41:34.624Z,11.90
2018-04-26T07:44:02.681Z,11.90
2018-04-26T07:46:30.903Z,11.80
2018-04-26T07:48:58.958Z,11.70
2018-04-26T07:51:27.052Z,11.70
2018-04-26T07:53:55.874Z,11.50
2018-04-26T07:56:23.911Z,11.40
2018-04-26T07:58:52.233Z,11.40
2018-04-26T08:01:20.277Z,11.40
2018-04-26T08:03:48.320Z,11.40
2018-04-26T08:06:16.369Z,11.40
2018-04-26T08:08:44.425Z,11.50
2018-04-26T08:11:12.479Z,11.50
2018-04-26T08:13:40.524Z,11.50
2018-04-26T08:16:11.119Z,11.60
2018-04-26T08:18:39.170Z,11.60
2018-04-26T08:21:07.217Z,11.50
2018-04-26T08:23:35.264Z,11.30
2018-04-26T08:26:04.059Z,11.40
2018-04-26T08:28:32.132Z,11.40
2018-04-26T08:31:00.168Z,11.40
2018-04-26T08:33:28.268Z,11.40
2018-04-26T08:35:57.064Z,11.30
2018-04-26T08:38:25.255Z,11.30
2018-04-26T08:40:53.292Z,11.30
2018-04-26T08:43:22.096Z,11.40
2018-04-26T08:45:50.140Z,11.40
2018-04-26T08:48:18.188Z,11.60
2018-04-26T08:50:46.255Z,11.50
2018-04-26T08:53:14.381Z,11.50
2018-04-26T08:55:42.500Z,11.50
2018-04-26T08:58:10.513Z,11.50
2018-04-26T09:00:38.565Z,11.40
2018-04-26T09:03:06.607Z,11.40
2018-04-26T09:05:34.653Z,11.40
2018-04-26T09:08:02.979Z,11.50
2018-04-26T09:10:31.040Z,11.40
2018-04-26T09:12:59.076Z,11.50
2018-04-26T09:15:27.138Z,11.50
2018-04-26T09:17:55.415Z,11.50
2018-04-26T09:20:23.478Z,11.30
2018-04-26T09:22:51.552Z,11.40
2018-04-26T09:25:19.621Z,11.50
2018-04-26T09:27:47.692Z,11.50
2018-04-26T09:30:15.747Z,11.70
2018-04-26T09:32:43.795Z,11.80
2018-04-26T09:35:12.627Z,11.90
2018-04-26T09:37:40.696Z,11.90
2018-04-26T09:40:08.760Z,12.10
2018-04-26T09:42:36.821Z,12.10
2018-04-26T09:45:05.101Z,12.00
2018-04-26T09:47:33.148Z,11.90
2018-04-26T09:50:02.030Z,11.90
2018-04-26T09:52:30.068Z,11.90
2018-04-26T09:54:58.141Z,11.90
2018-04-26T09:57:26.200Z,12.00
2018-04-26T09:59:54.249Z,12.20
2018-04-26T10:02:25.119Z,12.30
2018-04-26T10:04:55.009Z,12.50
2018-04-26T10:07:23.055Z,12.80
2018-04-26T10:09:51.888Z,12.70
2018-04-26T10:12:19.990Z,12.70
2018-04-26T10:14:47.988Z,13.10
2018-04-26T10:17:16.188Z,13.60
2018-04-26T10:19:44.338Z,13.70
2018-04-26T10:22:12.399Z,13.50
2018-04-26T10:24:41.224Z,12.80
2018-04-26T10:27:10.145Z,12.70
2018-04-26T10:29:38.206Z,12.70
2018-04-26T10:32:06.273Z,13.10
2018-04-26T10:34:34.337Z,13.50
2018-04-26T10:37:02.401Z,13.70
2018-04-26T10:39:30.443Z,13.30
2018-04-26T10:41:58.516Z,13.00
2018-04-26T10:44:26.635Z,13.20
2018-04-26T10:46:55.385Z,13.80
2018-04-26T10:49:27.881Z,13.80
2018-04-26T10:51:56.685Z,13.80
2018-04-26T10:54:24.727Z,13.80
2018-04-26T10:56:53.020Z,13.70
2018-04-26T10:59:21.064Z,13.80
2018-04-26T11:01:49.130Z,14.00
2018-04-26T11:04:17.172Z,14.00
2018-04-26T11:06:45.971Z,13.80
2018-04-26T11:09:14.836Z,13.80
2018-04-26T11:11:42.825Z,13.80
2018-04-26T11:14:11.648Z,14.00
2018-04-26T11:16:40.456Z,14.20
2018-04-26T11:19:08.508Z,14.20
2018-04-26T11:21:36.572Z,14.60
2018-04-26T11:24:04.628Z,14.60
2018-04-26T11:26:32.724Z,14.60
2018-04-26T11:29:00.728Z,14.60
2018-04-26T11:31:28.774Z,14.80
2018-04-26T11:33:56.823Z,15.10
2018-04-26T11:36:24.864Z,15.20
2018-04-26T11:38:53.696Z,15.10
2018-04-26T11:41:21.740Z,15.10
2018-04-26T11:43:50.568Z,14.70
2018-04-26T11:46:18.618Z,14.70
2018-04-26T11:48:46.659Z,14.50
2018-04-26T11:51:15.493Z,14.60
2018-04-26T11:53:43.548Z,14.60
2018-04-26T11:56:11.592Z,14.80
2018-04-26T11:58:40.426Z,15.00
2018-04-26T12:01:08.473Z,15.00
2018-04-26T12:03:36.519Z,15.00
2018-04-26T12:06:05.332Z,15.80
2018-04-26T12:08:33.381Z,15.70
2018-04-26T12:11:02.191Z,16.00
2018-04-26T12:13:30.232Z,16.00
2018-04-26T12:15:59.028Z,15.50
2018-04-26T12:18:27.908Z,15.50
2018-04-26T12:20:56.672Z,15.50
2018-04-26T12:23:24.733Z,15.50
2018-04-26T12:25:52.760Z,15.40
2018-04-26T12:28:20.814Z,15.40
2018-04-26T12:30:49.627Z,16.00
2018-04-26T12:33:17.684Z,16.00
2018-04-26T12:35:45.830Z,16.30
2018-04-26T12:38:14.738Z,16.60
2018-04-26T12:40:42.801Z,16.60
2018-04-26T12:43:11.625Z,16.80
2018-04-26T12:45:39.660Z,16.80
2018-04-26T12:48:07.715Z,16.70
2018-04-26T12:50:35.835Z,16.50
2018-04-26T12:53:03.827Z,16.40
2018-04-26T12:55:31.876Z,16.20
2018-04-26T12:57:59.963Z,15.80
2018-04-26T13:00:28.035Z,15.60
2018-04-26T13:02:56.076Z,15.60
2018-04-26T13:05:24.133Z,15.60
2018-04-26T13:07:52.951Z,15.60
2018-04-26T13:10:21.022Z,15.60
2018-04-26T13:12:49.057Z,15.20
2018-04-26T13:15:17.860Z,15.00
2018-04-26T13:17:46.672Z,15.00
2018-04-26T13:20:14.736Z,15.00
2018-04-26T13:22:42.787Z,15.00
2018-04-26T13:25:11.603Z,15.10
2018-04-26T13:27:39.668Z,15.10
2018-04-26T13:30:07.196Z,15.10
2018-04-26T13:32:35.445Z,15.70
2018-04-26T13:35:03.509Z,16.10
2018-04-26T13:37:31.548Z,16.20
2018-04-26T13:39:59.603Z,15.80
2018-04-26T13:42:27.640Z,16.20
2018-04-26T13:44:55.681Z,16.70
2018-04-26T13:47:23.734Z,17.60
2018-04-26T13:49:51.831Z,17.90
2018-04-26T13:52:19.833Z,18.30
2018-04-26T13:54:48.652Z,18.80
2018-04-26T13:57:16.706Z,18.80
2018-04-26T13:59:45.525Z,18.50
2018-04-26T14:02:13.573Z,18.50
2018-04-26T14:04:41.621Z,18.20
2018-04-26T14:07:10.428Z,17.50
2018-04-26T14:09:38.473Z,17.50
2018-04-26T14:12:06.549Z,17.50
2018-04-26T14:14:34.575Z,17.60
2018-04-26T14:17:02.624Z,17.70
2018-04-26T14:19:30.671Z,17.80
2018-04-26T14:21:59.480Z,17.70
2018-04-26T14:24:27.532Z,17.60
2018-04-26T14:26:55.585Z,18.00
2018-04-26T14:29:24.499Z,17.90
2018-04-26T14:31:52.469Z,17.80
2018-04-26T14:34:20.531Z,17.60
2018-04-26T14:36:49.417Z,16.60
2018-04-26T14:39:18.234Z,16.20
2018-04-26T14:41:46.301Z,16.10
2018-04-26T14:44:14.344Z,16.00
2018-04-26T14:46:43.174Z,15.70
2018-04-26T14:49:11.216Z,15.70
2018-04-26T14:51:39.269Z,15.90
2018-04-26T14:54:08.095Z,16.00
2018-04-26T14:56:36.214Z,15.90
2018-04-26T14:59:04.247Z,15.80
2018-04-26T15:01:32.300Z,15.50
2018-04-26T15:04:00.396Z,15.60
2018-04-26T15:06:28.452Z,15.60
2018-04-26T15:08:56.492Z,15.60
2018-04-26T15:11:25.313Z,15.80
2018-04-26T15:13:53.368Z,15.80
2018-04-26T15:16:21.424Z,16.00
2018-04-26T15:18:50.232Z,15.80
2018-04-26T15:21:18.279Z,15.80
2018-04-26T15:23:47.109Z,16.00
2018-04-26T15:26:15.147Z,16.00
2018-04-26T15:28:43.207Z,16.10
2018-04-26T15:31:12.020Z,17.00
2018-04-26T15:33:40.077Z,16.90
2018-04-26T15:36:09.020Z,16.80
2018-04-26T15:38:37.059Z,16.80
2018-04-26T15:41:05.106Z,16.80
2018-04-26T15:43:34.109Z,17.50
2018-04-26T15:46:02.116Z,17.40
2018-04-26T15:48:30.168Z,17.50
2018-04-26T15:50:58.209Z,17.70
2018-04-26T15:53:38.897Z,17.10
2018-04-26T15:56:14.784Z,17.10
2018-04-26T16:15:57.932Z,18.30
2018-04-26T16:21:39.709Z,16.80
2018-04-26T16:24:25.385Z,16.60
2018-04-26T16:27:11.133Z,16.90
2018-04-26T16:29:50.918Z,16.80
2018-04-26T16:32:37.382Z,16.70
2018-04-26T16:35:21.061Z,16.60
2018-04-26T16:38:07.480Z,15.90
2018-04-26T16:40:35.523Z,15.90
2018-04-26T16:43:03.652Z,15.70
2018-04-26T16:45:32.368Z,15.60
2018-04-26T16:48:00.454Z,15.60
2018-04-26T16:50:28.497Z,15.70
2018-04-26T16:52:57.318Z,15.70
2018-04-26T16:55:25.380Z,15.60
2018-04-26T16:57:53.424Z,15.80
2018-04-26T17:00:22.241Z,16.20
2018-04-26T17:02:50.314Z,16.20
2018-04-26T17:05:18.359Z,16.50
2018-04-26T17:07:47.192Z,16.20
2018-04-26T17:10:15.290Z,16.20
2018-04-26T17:12:43.292Z,16.20
2018-04-26T17:15:12.304Z,16.00
2018-04-26T17:17:40.336Z,16.00
2018-04-26T17:20:08.376Z,15.80
2018-04-26T17:22:36.488Z,15.70
2018-04-26T17:25:04.464Z,15.80
2018-04-26T17:27:33.441Z,15.70
2018-04-26T17:30:01.497Z,15.70
2018-04-26T17:32:29.538Z,15.60
2018-04-26T17:34:57.646Z,15.50
2018-04-26T17:37:25.629Z,15.40
2018-04-26T17:39:54.445Z,15.10
2018-04-26T17:42:22.546Z,15.10
2018-04-26T17:44:51.317Z,14.90
2018-04-26T17:47:19.365Z,14.80
2018-04-26T17:49:47.507Z,14.90
2018-04-26T17:52:15.537Z,14.90
2018-04-26T17:54:43.593Z,14.60
2018-04-26T17:57:11.628Z,14.70
2018-04-26T17:59:39.750Z,14.60
2018-04-26T18:02:07.802Z,14.50
2018-04-26T18:04:35.844Z,14.40
2018-04-26T18:07:04.666Z,14.30
2018-04-26T18:09:35.248Z,14.30
2018-04-26T18:12:03.252Z,14.20
2018-04-26T18:14:32.061Z,14.10
2018-04-26T18:17:00.108Z,14.10
2018-04-26T18:19:28.157Z,14.10
2018-04-26T18:21:56.219Z,14.00
2018-04-26T18:24:24.282Z,14.00
2018-04-26T18:26:52.304Z,14.00
2018-04-26T18:29:20.345Z,13.90
2018-04-26T18:31:49.170Z,13.90
2018-04-26T18:34:17.350Z,13.90
2018-04-26T18:36:45.407Z,13.70
2018-04-26T18:39:13.441Z,13.60
2018-04-26T18:41:41.495Z,13.70
2018-04-26T18:44:09.531Z,13.60
2018-04-26T18:46:37.634Z,13.40
2018-04-26T18:49:05.697Z,13.30
2018-04-26T18:51:33.748Z,13.30
2018-04-26T18:54:01.796Z,13.20
2018-04-26T18:56:29.843Z,13.30
2018-04-26T18:58:58.645Z,13.20
2018-04-26T19:01:27.457Z,13.00
2018-04-26T19:03:55.496Z,13.00
2018-04-26T19:06:24.309Z,12.80
2018-04-26T19:08:52.778Z,12.80
2018-04-26T19:11:20.743Z,12.70
2018-04-26T19:13:48.815Z,12.50
2018-04-26T19:16:16.852Z,12.50
2018-04-26T19:18:44.900Z,12.50
2018-04-26T19:21:12.937Z,12.40
2018-04-26T19:23:40.997Z,12.30
2018-04-26T19:26:09.808Z,12.10
2018-04-26T19:28:38.620Z,12.10
2018-04-26T19:31:06.681Z,12.00
2018-04-26T19:33:34.729Z,11.90
2018-04-26T19:36:03.541Z,11.80
2018-04-26T19:38:31.609Z,11.80
2018-04-26T19:40:59.629Z,11.70
2018-04-26T19:43:28.444Z,11.70
2018-04-26T19:45:56.492Z,11.70
2018-04-26T19:48:25.319Z,11.60
2018-04-26T19:50:53.361Z,11.60
2018-04-26T19:53:22.169Z,11.60
2018-04-26T19:55:50.237Z,11.60
2018-04-26T19:58:18.500Z,11.60
2018-04-26T20:00:46.563Z,11.50
2018-04-26T20:03:15.414Z,11.50
2018-04-26T20:05:43.429Z,11.50
2018-04-26T20:08:11.532Z,11.50
2018-04-26T20:10:39.623Z,11.40
2018-04-26T20:13:07.669Z,11.40
2018-04-26T20:15:35.745Z,11.40
2018-04-26T20:18:03.824Z,11.30
2018-04-26T20:20:31.924Z,11.30
2018-04-26T20:22:59.986Z,11.30
2018-04-26T20:25:28.020Z,11.30
2018-04-26T20:27:56.093Z,11.20
2018-04-26T20:30:24.132Z,11.10
2018-04-26T20:32:53.050Z,10.90
2018-04-26T20:35:21.865Z,10.90
2018-04-26T20:37:49.908Z,10.90
2018-04-26T20:40:17.977Z,10.80
2018-04-26T20:42:46.012Z,10.70
2018-04-26T20:45:14.065Z,10.70
2018-04-26T20:47:42.138Z,10.70
2018-04-26T20:50:10.183Z,10.60
2018-04-26T20:52:38.224Z,10.70
2018-04-26T20:55:06.340Z,10.70
2018-04-26T20:57:34.387Z,10.70
2018-04-26T21:00:02.469Z,10.60
2018-04-26T21:02:30.504Z,10.50
2018-04-26T21:04:58.545Z,10.40
2018-04-26T21:07:28.252Z,10.30
2018-04-26T21:09:56.305Z,10.30
2018-04-26T21:12:24.354Z,10.30
2018-04-26T21:14:53.156Z,10.20
2018-04-26T21:17:21.193Z,10.20
2018-04-26T21:19:49.261Z,10.10
2018-04-26T21:22:17.305Z,10.10
2018-04-26T21:24:46.139Z,10.00
2018-04-26T21:27:14.163Z,10.00
2018-04-26T21:29:42.990Z,10.00
2018-04-26T21:32:14.413Z,10.00
2018-04-26T21:34:43.592Z,10.00
2018-04-26T21:37:12.228Z,10.00
2018-04-26T21:39:40.308Z,10.00
2018-04-26T21:42:09.290Z,9.90
2018-04-26T21:44:37.820Z,9.90
2018-04-26T21:47:06.770Z,9.80
2018-04-26T21:49:34.388Z,9.80
2018-04-26T21:52:12.400Z,9.90
2018-04-26T21:54:47.165Z,9.90
2018-04-26T21:57:20.999Z,10.00
2018-04-26T21:59:54.632Z,9.90
2018-04-26T22:02:23.457Z,9.80
2018-04-26T22:07:54.351Z,9.60
2018-04-26T22:10:23.430Z,9.60
2018-04-26T22:12:51.769Z,9.60
2018-04-26T22:15:20.014Z,9.60
2018-04-26T22:17:48.404Z,9.60
2018-04-26T22:20:16.885Z,9.60
2018-04-26T22:22:45.058Z,9.60
2018-04-26T22:25:13.385Z,9.80
2018-04-26T22:27:42.990Z,9.60
2018-04-26T22:30:11.219Z,9.60
2018-04-26T22:32:39.611Z,9.70
2018-04-26T22:35:08.825Z,9.50
2018-04-26T22:37:38.176Z,9.40
2018-04-26T22:40:06.553Z,9.40
2018-04-26T22:42:34.914Z,9.30
2018-04-26T22:45:03.040Z,9.30
2018-04-26T22:47:31.444Z,9.20
2018-04-26T22:49:59.674Z,9.20
2018-04-26T22:52:28.206Z,9.20
2018-04-26T22:54:56.314Z,9.20
2018-04-26T22:57:24.487Z,9.10
2018-04-26T22:59:52.604Z,8.90
2018-04-26T23:02:20.711Z,9.00
2018-04-26T23:04:48.842Z,8.90
2018-04-26T23:07:16.952Z,8.90
2018-04-26T23:09:45.824Z,8.70
2018-04-26T23:12:14.016Z,8.70
2018-04-26T23:14:42.888Z,8.70
2018-04-26T23:17:11.008Z,8.70
2018-04-26T23:19:39.108Z,8.70
2018-04-26T23:22:07.212Z,8.70
2018-04-26T23:24:35.389Z,8.70
2018-04-26T23:27:03.539Z,8.60
2018-04-26T23:29:31.675Z,8.70
2018-04-26T23:31:59.807Z,8.70
2018-04-26T23:34:27.904Z,8.70
2018-04-26T23:36:56.164Z,8.70
2018-04-26T23:39:24.284Z,8.70
2018-04-26T23:41:52.406Z,8.70
2018-04-26T23:44:20.643Z,8.70
2018-04-26T23:46:48.751Z,8.80
2018-04-26T23:49:16.860Z,8.60
2018-04-26T23:51:45.788Z,8.60
2018-04-26T23:54:14.025Z,8.60
2018-04-26T23:56:45.515Z,8.60
2018-04-26T23:59:15.154Z,8.50
